createdAt,value
2022-09-27T00:02:01.706Z,11.30
2022-09-27T00:04:29.605Z,11.40
2022-09-27T00:06:57.516Z,11.40
2022-09-27T00:09:27.200Z,11.40
2022-09-27T00:11:55.073Z,11.40
2022-09-27T00:14:23.120Z,11.40
2022-09-27T00:16:50.988Z,11.40
2022-09-27T00:19:21.834Z,11.40
2022-09-27T00:21:50.826Z,11.40
2022-09-27T00:24:20.745Z,11.30
2022-09-27T00:26:50.712Z,11.30
2022-09-27T00:29:20.315Z,11.30
2022-09-27T00:31:48.406Z,11.30
2022-09-27T00:34:20.527Z,11.30
2022-09-27T00:36:48.869Z,11.30
2022-09-27T00:39:17.526Z,11.30
2022-09-27T00:41:46.384Z,11.30
2022-09-27T00:44:51.913Z,11.30
2022-09-27T00:47:28.633Z,11.30
2022-09-27T00:50:01.201Z,11.30
2022-09-27T00:52:33.614Z,11.30
2022-09-27T00:55:07.872Z,11.30
2022-09-27T00:57:36.577Z,11.30
2022-09-27T01:00:08.271Z,11.30
2022-09-27T01:02:39.625Z,11.30
2022-09-27T01:05:10.989Z,11.30
2022-09-27T01:07:38.896Z,11.30
2022-09-27T01:10:08.258Z,11.20
2022-09-27T01:12:46.144Z,11.30
2022-09-27T01:15:23.293Z,11.30
2022-09-27T01:18:06.348Z,11.20
2022-09-27T01:21:02.613Z,11.20
2022-09-27T01:23:52.622Z,11.20
2022-09-27T01:26:33.694Z,11.30
2022-09-27T01:29:08.811Z,11.30
2022-09-27T01:31:47.704Z,11.30
2022-09-27T01:34:23.836Z,11.30
2022-09-27T01:36:57.496Z,11.30
2022-09-27T01:39:37.823Z,11.30
2022-09-27T01:42:13.085Z,11.30
2022-09-27T01:44:49.450Z,11.30
2022-09-27T01:47:22.614Z,11.30
2022-09-27T01:49:55.791Z,11.30
2022-09-27T01:52:29.809Z,11.30
2022-09-27T01:55:02.149Z,11.30
2022-09-27T01:57:36.166Z,11.30
2022-09-27T02:00:07.850Z,11.30
2022-09-27T02:02:41.466Z,11.30
2022-09-27T02:05:14.177Z,11.30
2022-09-27T02:07:48.645Z,11.20
2022-09-27T02:10:19.870Z,11.20
2022-09-27T02:12:53.085Z,11.20
2022-09-27T02:15:21.368Z,11.20
2022-09-27T02:17:57.493Z,11.20
2022-09-27T02:20:31.146Z,11.20
2022-09-27T02:23:10.586Z,11.20
2022-09-27T02:25:45.173Z,11.10
2022-09-27T02:28:23.791Z,11.10
2022-09-27T02:30:51.837Z,11.10
2022-09-27T02:33:24.466Z,11.10
2022-09-27T02:35:52.398Z,11.10
2022-09-27T02:38:21.080Z,11.10
2022-09-27T02:40:49.297Z,11.10
2022-09-27T02:43:20.098Z,11.20
2022-09-27T02:45:58.274Z,11.20
2022-09-27T02:48:39.166Z,11.20
2022-09-27T02:51:30.726Z,11.20
2022-09-27T02:54:11.732Z,11.20
2022-09-27T02:56:51.708Z,11.10
2022-09-27T02:59:27.472Z,11.20
2022-09-27T03:02:08.588Z,11.10
2022-09-27T03:04:44.936Z,11.10
2022-09-27T03:07:14.838Z,11.10
2022-09-27T03:09:45.746Z,11.00
2022-09-27T03:12:13.848Z,11.10
2022-09-27T03:14:41.954Z,11.00
2022-09-27T03:17:09.961Z,11.00
2022-09-27T03:19:37.953Z,11.00
2022-09-27T03:22:07.545Z,11.00
2022-09-27T03:24:35.743Z,10.90
2022-09-27T03:27:04.384Z,10.90
2022-09-27T03:29:32.669Z,10.90
2022-09-27T03:32:00.684Z,10.90
2022-09-27T03:34:29.214Z,10.90
2022-09-27T03:36:57.356Z,10.90
2022-09-27T03:39:27.313Z,10.90
2022-09-27T03:41:55.237Z,10.90
2022-09-27T03:44:23.138Z,10.80
2022-09-27T03:46:51.009Z,10.80
2022-09-27T03:49:19.039Z,10.80
2022-09-27T03:51:46.889Z,10.80
2022-09-27T03:54:14.817Z,10.80
2022-09-27T03:56:44.135Z,10.80
2022-09-27T03:59:12.238Z,10.80
2022-09-27T04:01:40.132Z,10.80
2022-09-27T04:04:11.341Z,10.70
2022-09-27T04:06:39.401Z,10.70
2022-09-27T04:09:07.299Z,10.70
2022-09-27T04:11:35.172Z,10.70
2022-09-27T04:14:05.582Z,10.70
2022-09-27T04:16:33.863Z,10.70
2022-09-27T04:19:02.772Z,10.70
2022-09-27T04:21:30.658Z,10.70
2022-09-27T04:23:58.649Z,10.60
2022-09-27T04:26:27.177Z,10.60
2022-09-27T04:28:55.981Z,10.60
2022-09-27T04:31:25.269Z,10.60
2022-09-27T04:33:53.870Z,10.60
2022-09-27T04:36:28.200Z,10.60
2022-09-27T04:38:57.388Z,10.60
2022-09-27T04:41:26.416Z,10.60
2022-09-27T04:43:58.986Z,10.60
2022-09-27T04:46:31.561Z,10.60
2022-09-27T04:49:00.145Z,10.60
2022-09-27T04:51:28.529Z,10.60
2022-09-27T04:53:57.769Z,10.60
2022-09-27T04:56:26.191Z,10.50
2022-09-27T05:01:39.077Z,10.50
2022-09-27T05:04:07.484Z,10.50
2022-09-27T05:06:35.510Z,10.50
2022-09-27T05:09:03.584Z,10.50
2022-09-27T05:11:31.438Z,10.50
2022-09-27T05:13:59.351Z,10.50
2022-09-27T05:16:33.912Z,10.50
2022-09-27T05:19:03.797Z,10.50
2022-09-27T05:21:32.997Z,10.40
2022-09-27T05:24:04.105Z,10.50
2022-09-27T05:26:31.948Z,10.50
2022-09-27T05:29:00.421Z,10.50
2022-09-27T05:31:29.305Z,10.50
2022-09-27T05:33:57.220Z,10.50
2022-09-27T05:36:26.940Z,10.50
2022-09-27T05:38:54.817Z,10.50
2022-09-27T05:41:22.803Z,10.60
2022-09-27T05:43:50.812Z,10.60
2022-09-27T05:46:19.091Z,10.60
2022-09-27T05:48:49.340Z,10.50
2022-09-27T05:51:17.282Z,10.50
2022-09-27T05:53:46.493Z,10.60
2022-09-27T05:56:14.394Z,10.50
2022-09-27T05:58:42.283Z,10.50
2022-09-27T06:01:15.333Z,10.40
2022-09-27T06:03:43.525Z,10.40
2022-09-27T06:06:11.464Z,10.30
2022-09-27T06:08:40.822Z,10.30
2022-09-27T06:11:12.415Z,10.30
2022-09-27T06:13:41.633Z,10.30
2022-09-27T06:16:12.600Z,10.30
2022-09-27T06:18:40.811Z,10.30
2022-09-27T06:21:08.773Z,10.30
2022-09-27T06:23:36.715Z,10.30
2022-09-27T06:26:06.244Z,10.30
2022-09-27T06:28:36.063Z,10.40
2022-09-27T06:31:08.172Z,10.40
2022-09-27T06:33:36.671Z,10.30
2022-09-27T06:36:06.883Z,10.40
2022-09-27T06:38:35.201Z,10.40
2022-09-27T06:41:04.438Z,10.40
2022-09-27T06:43:33.441Z,10.40
2022-09-27T06:46:05.814Z,10.40
2022-09-27T06:48:37.503Z,10.40
2022-09-27T06:51:06.023Z,10.40
2022-09-27T06:53:34.133Z,10.40
2022-09-27T06:56:02.442Z,10.50
2022-09-27T06:58:50.066Z,10.40
2022-09-27T07:01:40.982Z,10.50
2022-09-27T07:04:11.251Z,10.50
2022-09-27T07:06:39.287Z,10.50
2022-09-27T07:09:09.013Z,10.50
2022-09-27T07:11:40.971Z,10.60
2022-09-27T07:14:38.511Z,10.60
2022-09-27T07:17:08.490Z,10.60
2022-09-27T07:19:46.507Z,10.70
2022-09-27T07:22:18.680Z,10.70
2022-09-27T07:27:40.372Z,10.80
2022-09-27T07:30:09.590Z,10.90
2022-09-27T07:32:42.585Z,10.90
2022-09-27T07:35:15.056Z,10.90
2022-09-27T07:37:45.005Z,10.90
2022-09-27T07:40:14.333Z,10.90
2022-09-27T07:42:43.769Z,10.90
2022-09-27T07:45:12.456Z,10.90
2022-09-27T07:47:42.403Z,10.90
2022-09-27T07:50:12.406Z,10.90
2022-09-27T07:52:41.037Z,10.90
2022-09-27T07:55:10.602Z,10.80
2022-09-27T07:57:39.134Z,10.60
2022-09-27T08:00:11.359Z,10.50
2022-09-27T08:02:45.488Z,10.50
2022-09-27T08:05:14.578Z,10.60
2022-09-27T08:07:45.648Z,10.60
2022-09-27T08:10:17.552Z,10.70
2022-09-27T08:12:45.520Z,10.70
2022-09-27T08:15:13.454Z,10.80
2022-09-27T08:17:45.028Z,10.90
2022-09-27T08:20:15.837Z,10.90
2022-09-27T08:22:43.941Z,11.00
2022-09-27T08:25:14.289Z,11.10
2022-09-27T08:27:46.127Z,11.20
2022-09-27T08:30:18.720Z,11.30
2022-09-27T08:32:48.173Z,11.40
2022-09-27T08:35:16.807Z,11.50
2022-09-27T08:37:44.765Z,11.50
2022-09-27T08:40:18.792Z,11.50
2022-09-27T08:42:52.870Z,11.50
2022-09-27T08:45:29.662Z,11.50
2022-09-27T08:48:06.665Z,11.40
2022-09-27T08:50:42.146Z,11.40
2022-09-27T08:53:25.262Z,11.40
2022-09-27T08:55:55.567Z,11.30
2022-09-27T08:58:31.753Z,11.30
2022-09-27T09:01:03.506Z,11.30
2022-09-27T09:03:36.728Z,11.30
2022-09-27T09:06:17.913Z,11.30
2022-09-27T09:08:57.645Z,11.30
2022-09-27T09:11:53.092Z,11.30
2022-09-27T09:15:00.999Z,11.20
2022-09-27T09:17:43.143Z,11.10
2022-09-27T09:22:59.456Z,10.90
2022-09-27T09:25:38.724Z,10.90
2022-09-27T09:28:19.312Z,10.80
2022-09-27T09:30:59.849Z,10.80
2022-09-27T09:33:37.148Z,10.80
2022-09-27T09:36:14.169Z,10.90
2022-09-27T09:38:46.184Z,10.90
2022-09-27T09:41:21.322Z,10.90
2022-09-27T09:43:55.867Z,10.90
2022-09-27T09:46:33.645Z,10.90
2022-09-27T09:49:07.405Z,11.00
2022-09-27T09:51:41.814Z,11.00
2022-09-27T09:54:20.547Z,11.00
2022-09-27T09:56:53.274Z,11.00
2022-09-27T09:59:25.909Z,11.00
2022-09-27T10:01:56.741Z,11.00
2022-09-27T10:04:27.866Z,11.00
2022-09-27T10:06:57.938Z,10.90
2022-09-27T10:09:29.723Z,10.90
2022-09-27T10:11:58.036Z,10.90
2022-09-27T10:14:28.974Z,10.90
2022-09-27T10:17:00.722Z,11.00
2022-09-27T10:19:31.159Z,11.00
2022-09-27T10:22:14.724Z,11.00
2022-09-27T10:24:56.990Z,11.00
2022-09-27T10:27:26.609Z,11.00
2022-09-27T10:30:01.343Z,11.10
2022-09-27T10:32:37.391Z,11.10
2022-09-27T10:35:23.962Z,11.10
2022-09-27T10:37:54.006Z,11.20
2022-09-27T10:40:33.759Z,11.20
2022-09-27T10:43:01.781Z,11.20
2022-09-27T10:45:36.361Z,11.20
2022-09-27T10:48:04.687Z,11.20
2022-09-27T10:50:50.135Z,11.30
2022-09-27T10:53:25.482Z,11.30
2022-09-27T10:55:56.280Z,11.30
2022-09-27T10:58:30.159Z,11.30
2022-09-27T11:01:01.332Z,11.30
2022-09-27T11:03:33.027Z,11.20
2022-09-27T11:06:22.224Z,11.10
2022-09-27T11:08:51.406Z,11.10
2022-09-27T11:11:30.146Z,11.10
2022-09-27T11:14:04.298Z,11.10
2022-09-27T11:16:48.841Z,11.20
2022-09-27T11:19:31.863Z,11.20
2022-09-27T11:22:12.651Z,11.30
2022-09-27T11:24:56.811Z,11.30
2022-09-27T11:27:36.404Z,11.40
2022-09-27T11:30:12.648Z,11.40
2022-09-27T11:33:03.097Z,11.40
2022-09-27T11:35:53.280Z,11.50
2022-09-27T11:38:51.099Z,11.50
2022-09-27T11:41:46.917Z,11.40
2022-09-27T11:44:35.016Z,11.40
2022-09-27T11:47:18.247Z,11.40
2022-09-27T11:50:26.112Z,11.30
2022-09-27T11:53:11.973Z,11.10
2022-09-27T11:55:48.197Z,11.10
2022-09-27T11:58:27.713Z,11.00
2022-09-27T12:01:15.842Z,11.00
2022-09-27T12:04:03.787Z,10.90
2022-09-27T12:06:42.138Z,10.90
2022-09-27T12:09:17.297Z,10.90
2022-09-27T12:11:50.404Z,10.90
2022-09-27T12:14:26.902Z,10.90
2022-09-27T12:16:58.424Z,10.90
2022-09-27T12:19:29.833Z,11.00
2022-09-27T12:22:05.663Z,11.00
2022-09-27T12:24:37.948Z,11.00
2022-09-27T12:27:13.598Z,11.10
2022-09-27T12:29:46.934Z,11.10
2022-09-27T12:32:43.946Z,11.10
2022-09-27T12:35:19.487Z,11.10
2022-09-27T12:37:52.249Z,11.10
2022-09-27T12:40:24.182Z,11.00
2022-09-27T12:43:04.047Z,11.00
2022-09-27T12:45:43.636Z,11.00
2022-09-27T12:48:25.631Z,10.90
2022-09-27T12:50:57.296Z,10.90
2022-09-27T12:53:30.962Z,10.80
2022-09-27T12:59:44.910Z,10.50
2022-09-27T13:03:04.042Z,10.40
2022-09-27T13:06:06.486Z,10.40
2022-09-27T13:09:12.347Z,10.30
2022-09-27T13:11:50.487Z,10.20
2022-09-27T13:14:24.282Z,10.30
2022-09-27T13:16:56.105Z,10.40
2022-09-27T13:19:44.014Z,10.50
2022-09-27T13:22:37.930Z,10.50
2022-09-27T13:25:55.518Z,10.60
2022-09-27T13:28:36.089Z,10.60
2022-09-27T13:31:08.024Z,10.70
2022-09-27T13:34:04.810Z,10.60
2022-09-27T13:36:34.107Z,10.60
2022-09-27T13:39:21.018Z,10.60
2022-09-27T13:42:12.689Z,10.60
2022-09-27T13:45:05.216Z,10.60
2022-09-27T13:47:51.845Z,10.60
2022-09-27T13:50:25.445Z,10.60
2022-09-27T13:53:11.752Z,10.60
2022-09-27T13:55:57.436Z,10.60
2022-09-27T13:59:05.682Z,10.60
2022-09-27T14:01:43.944Z,10.60
2022-09-27T14:04:17.303Z,10.70
2022-09-27T14:06:48.509Z,10.70
2022-09-27T14:09:23.805Z,10.80
2022-09-27T14:11:57.432Z,10.90
2022-09-27T14:14:36.670Z,11.00
2022-09-27T14:17:10.255Z,11.10
2022-09-27T14:19:40.933Z,11.20
2022-09-27T14:22:14.187Z,11.30
2022-09-27T14:24:47.906Z,11.30
2022-09-27T14:27:38.280Z,11.30
2022-09-27T14:30:30.288Z,11.20
2022-09-27T14:33:01.867Z,11.20
2022-09-27T14:35:48.727Z,11.10
2022-09-27T14:38:37.195Z,11.10
2022-09-27T14:41:08.837Z,11.00
2022-09-27T14:43:52.715Z,11.10
2022-09-27T14:46:31.813Z,11.10
2022-09-27T14:49:34.063Z,11.10
2022-09-27T14:52:16.704Z,11.10
2022-09-27T14:54:53.270Z,11.10
2022-09-27T15:00:32.051Z,11.10
2022-09-27T15:03:05.464Z,11.10
2022-09-27T15:05:40.660Z,11.10
2022-09-27T15:08:17.448Z,11.10
2022-09-27T15:13:55.034Z,10.80
2022-09-27T15:19:21.891Z,11.00
2022-09-27T15:22:00.415Z,11.10
2022-09-27T15:27:33.113Z,11.00
2022-09-27T15:30:03.706Z,10.90
2022-09-27T15:32:55.276Z,10.80
2022-09-27T15:35:35.165Z,10.90
2022-09-27T15:38:29.360Z,10.90
2022-09-27T15:41:14.438Z,10.80
2022-09-27T15:43:47.260Z,10.70
2022-09-27T15:46:38.264Z,10.70
2022-09-27T15:49:36.939Z,10.70
2022-09-27T15:52:19.935Z,10.60
2022-09-27T15:55:01.587Z,10.60
2022-09-27T15:57:37.651Z,10.50
2022-09-27T16:06:49.462Z,10.50
2022-09-27T16:09:24.302Z,10.50
2022-09-27T16:11:53.467Z,10.50
2022-09-27T16:14:31.999Z,10.50
2022-09-27T16:17:03.053Z,10.50
2022-09-27T16:19:35.022Z,10.40
2022-09-27T16:22:06.184Z,10.50
2022-09-27T16:24:50.978Z,10.50
2022-09-27T16:27:32.100Z,10.50
2022-09-27T16:30:07.457Z,10.40
2022-09-27T16:32:39.471Z,10.50
2022-09-27T16:35:15.890Z,10.50
2022-09-27T16:37:46.572Z,10.50
2022-09-27T16:40:17.917Z,10.50
2022-09-27T16:42:49.037Z,10.50
2022-09-27T16:45:19.492Z,10.50
2022-09-27T16:47:47.824Z,10.50
2022-09-27T16:50:48.864Z,10.60
2022-09-27T16:53:18.089Z,10.60
2022-09-27T16:55:56.646Z,10.60
2022-09-27T16:58:24.586Z,10.60
2022-09-27T17:00:52.469Z,10.70
2022-09-27T17:03:33.503Z,10.70
2022-09-27T17:06:04.025Z,10.50
2022-09-27T17:08:33.677Z,10.40
2022-09-27T17:11:03.970Z,10.20
2022-09-27T17:13:31.758Z,10.10
2022-09-27T17:16:06.727Z,10.10
2022-09-27T17:18:34.700Z,10.10
2022-09-27T17:21:06.224Z,9.90
2022-09-27T17:23:43.343Z,9.80
2022-09-27T17:26:21.024Z,9.70
2022-09-27T17:28:49.879Z,9.60
2022-09-27T17:31:19.775Z,9.70
2022-09-27T17:33:54.363Z,9.70
2022-09-27T17:36:27.289Z,9.80
2022-09-27T17:41:44.023Z,9.90
2022-09-27T17:44:18.209Z,9.90
2022-09-27T17:46:47.547Z,9.80
2022-09-27T17:49:38.919Z,9.80
2022-09-27T17:52:08.176Z,9.80
2022-09-27T17:54:44.093Z,9.80
2022-09-27T17:57:25.137Z,9.80
2022-09-27T17:59:53.844Z,9.80
2022-09-27T18:02:23.892Z,9.80
2022-09-27T18:04:56.429Z,9.90
2022-09-27T18:07:26.106Z,9.90
2022-09-27T18:09:57.054Z,10.00
2022-09-27T18:12:31.785Z,10.00
2022-09-27T18:14:59.867Z,10.00
2022-09-27T18:17:39.540Z,10.00
2022-09-27T18:20:09.899Z,10.00
2022-09-27T18:22:38.822Z,10.00
2022-09-27T18:25:19.633Z,10.00
2022-09-27T18:27:53.055Z,10.00
2022-09-27T18:30:25.751Z,10.00
2022-09-27T18:32:54.224Z,9.90
2022-09-27T18:35:24.259Z,9.90
2022-09-27T18:37:53.099Z,9.90
2022-09-27T18:40:44.324Z,9.90
2022-09-27T18:43:10.525Z,9.80
2022-09-27T18:45:39.366Z,9.80
2022-09-27T18:48:12.284Z,9.80
2022-09-27T18:50:40.370Z,9.80
2022-09-27T18:53:11.132Z,9.80
2022-09-27T18:55:54.962Z,9.70
2022-09-27T18:58:26.539Z,9.80
2022-09-27T19:01:02.494Z,9.80
2022-09-27T19:03:44.217Z,9.80
2022-09-27T19:06:19.561Z,9.80
2022-09-27T19:08:48.028Z,9.90
2022-09-27T19:11:19.234Z,9.90
2022-09-27T19:13:54.581Z,9.90
2022-09-27T19:16:24.132Z,9.90
2022-09-27T19:18:53.948Z,9.90
2022-09-27T19:21:23.377Z,9.90
2022-09-27T19:23:52.217Z,9.90
2022-09-27T19:26:26.568Z,9.90
2022-09-27T19:28:54.964Z,9.90
2022-09-27T19:31:27.177Z,9.90
2022-09-27T19:34:00.368Z,9.90
2022-09-27T19:36:29.328Z,9.90
2022-09-27T19:39:00.824Z,9.90
2022-09-27T19:41:30.027Z,9.90
2022-09-27T19:43:58.256Z,9.90
2022-09-27T19:46:29.437Z,9.90
2022-09-27T19:48:57.490Z,9.90
2022-09-27T19:51:36.253Z,9.90
2022-09-27T19:54:04.660Z,9.90
2022-09-27T19:56:37.674Z,9.80
2022-09-27T19:59:07.346Z,9.80
2022-09-27T20:01:36.545Z,9.80
2022-09-27T20:04:04.952Z,9.80
2022-09-27T20:06:34.459Z,9.80
2022-09-27T20:09:04.117Z,9.80
2022-09-27T20:11:39.769Z,9.80
2022-09-27T20:14:14.803Z,9.80
2022-09-27T20:16:49.013Z,9.80
2022-09-27T20:19:16.934Z,9.70
2022-09-27T20:21:46.050Z,9.70
2022-09-27T20:24:14.701Z,9.70
2022-09-27T20:26:57.309Z,9.70
2022-09-27T20:29:26.484Z,9.80
2022-09-27T20:32:22.473Z,9.70
2022-09-27T20:34:44.258Z,9.70
2022-09-27T20:37:12.046Z,9.70
2022-09-27T20:39:39.862Z,9.70
2022-09-27T20:42:08.934Z,9.60
2022-09-27T20:44:40.839Z,9.60
2022-09-27T20:47:08.621Z,9.60
2022-09-27T20:49:45.162Z,9.60
2022-09-27T20:52:13.161Z,9.60
2022-09-27T20:54:41.014Z,9.60
2022-09-27T20:57:08.881Z,9.60
2022-09-27T20:59:38.072Z,9.70
2022-09-27T21:02:05.975Z,9.60
2022-09-27T21:04:33.899Z,9.60
2022-09-27T21:07:06.909Z,9.60
2022-09-27T21:09:35.898Z,9.60
2022-09-27T21:12:03.702Z,9.60
2022-09-27T21:14:31.822Z,9.60
2022-09-27T21:17:02.800Z,9.60
2022-09-27T21:19:30.623Z,9.60
2022-09-27T21:21:58.682Z,9.50
2022-09-27T21:24:26.806Z,9.50
2022-09-27T21:27:02.624Z,9.50
2022-09-27T21:29:30.438Z,9.40
2022-09-27T21:31:58.354Z,9.40
2022-09-27T21:34:27.592Z,9.40
2022-09-27T21:36:56.956Z,9.40
2022-09-27T21:39:24.797Z,9.40
2022-09-27T21:41:52.932Z,9.40
2022-09-27T21:44:21.578Z,9.40
2022-09-27T21:46:50.459Z,9.40
2022-09-27T21:49:18.410Z,9.40
2022-09-27T21:51:47.839Z,9.40
2022-09-27T21:54:16.508Z,9.50
2022-09-27T21:56:45.378Z,9.50
2022-09-27T21:59:16.001Z,9.50
2022-09-27T22:01:45.161Z,9.50
2022-09-27T22:04:16.109Z,9.50
2022-09-27T22:06:44.409Z,9.50
2022-09-27T22:09:16.919Z,9.50
2022-09-27T22:11:47.290Z,9.50
2022-09-27T22:14:16.116Z,9.50
2022-09-27T22:16:44.290Z,9.50
2022-09-27T22:19:13.659Z,9.40
2022-09-27T22:21:44.974Z,9.40
2022-09-27T22:24:15.708Z,9.40
2022-09-27T22:26:47.023Z,9.30
2022-09-27T22:29:15.321Z,9.30
2022-09-27T22:31:44.081Z,9.30
2022-09-27T22:34:17.111Z,9.30
2022-09-27T22:36:49.061Z,9.30
2022-09-27T22:39:23.310Z,9.40
2022-09-27T22:41:51.361Z,9.40
2022-09-27T22:44:19.943Z,9.40
2022-09-27T22:46:47.758Z,9.40
2022-09-27T22:49:20.247Z,9.40
2022-09-27T22:51:54.429Z,9.40
2022-09-27T22:54:23.609Z,9.40
2022-09-27T22:57:01.937Z,9.40
2022-09-27T22:59:29.732Z,9.40
2022-09-27T23:01:57.824Z,9.40
2022-09-27T23:04:32.285Z,9.40
2022-09-27T23:07:00.101Z,9.30
2022-09-27T23:09:29.245Z,9.30
2022-09-27T23:11:57.088Z,9.20
2022-09-27T23:14:26.074Z,9.20
2022-09-27T23:16:54.812Z,9.20
2022-09-27T23:19:23.350Z,9.20
2022-09-27T23:21:52.725Z,9.20
2022-09-27T23:24:20.717Z,9.10
2022-09-27T23:27:10.254Z,9.20
2022-09-27T23:29:38.688Z,9.10
2022-09-27T23:32:06.640Z,9.20
2022-09-27T23:34:34.896Z,9.10
2022-09-27T23:37:18.344Z,9.10
2022-09-27T23:39:46.145Z,9.10
2022-09-27T23:42:15.576Z,9.10
2022-09-27T23:44:43.696Z,9.10
2022-09-27T23:47:11.572Z,9.00
2022-09-27T23:49:39.710Z,9.00
2022-09-27T23:52:12.014Z,8.90
2022-09-27T23:55:09.130Z,8.90
2022-09-27T23:57:38.243Z,8.80
